Terminal Aerodrome Forecast
Issued by NWS Dallas/Fort Worth, TX

Home | Current Version | Previous Version | Text Only | Print | Product List | Glossary On
Versions: 1 2 3 4 5 6 7 8 9 10 11 12 13 14 15 16 17 18 19 20 21 22 23 24 25 26 27 28 29 30 31 32 33 34 35 36 37 38
000
FTUS44 KFWD 050238 AAA
TAFDFW
TAF AMD
KDFW 050238Z 0503/0606 36020G30KT 4SM -FZRAPL OVC011
     FM050400 35020G30KT 2SM PL VCTS OVC012CB
     FM050700 35020G30KT 2SM -SN OVC007
     FM050900 36018KT P6SM SCT006 BKN100
     FM051600 01014KT P6SM FEW120=

USA.gov is the U.S. government's official web portal to all federal, state and local government web resources and services.